Malaspina — WI6803 — position and weather

sailwx.info

Track history (hours):
 
Tides and Currents Weather Stations Pressure Air Temp Water Temp Dewpoint Dewpoint Depression Visibility Wind Speed Wind Dir Waves Ship Positions

Malaspina

Owner: ALASKA, STATE OF, ANCHORAGE, AK. More information available from US FCC via Universal Licensing System and Coast Guard Vessel Documentation Center.

Last reported at 2018-Oct-23 17:14 UTC. Time now 2018-Oct-24 04:38 UTC.
Position N 54°46' W 130°56'.

Type: Passenger vessel. MMSI: 367143000.

Date/timePositionNaut miles runAvg speedWind from/ knotsBaromVisibWave heightAir tempDewpointWater temp
2018-Oct-23 17:14N 54°46' W 130°56'316.7
2018-Oct-23 17:02N 54°43' W 130°52'016.3
2018-Oct-23 17:00N 54°43' W 130°51'817.0
2018-Oct-23 16:30N 54°36' W 130°42'716.2
2018-Oct-23 16:03N 54°29' W 130°38'117.0
2018-Oct-23 16:00N 54°29' W 130°38'817.1
2018-Oct-23 15:30N 54°20' W 130°36'716.5
2018-Oct-23 15:03N 54°15' W 130°27'116.9
2018-Oct-23 15:00N 54°14' W 130°26'5 4.3
2018-Oct-23 13:54N 54°18' W 130°21'0 0.0
2018-Oct-23 13:29N 54°18' W 130°21'0 0.0
2018-Oct-23 13:03N 54°18' W 130°21'0 0.0
2018-Oct-23 13:01N 54°18' W 130°21'0 0.0
2018-Oct-23 12:31N 54°18' W 130°21'0 0.0
2018-Oct-23 12:03N 54°18' W 130°21'0 0.0
2018-Oct-23 12:00N 54°18' W 130°21'0 0.0
2018-Oct-23 11:31N 54°18' W 130°21'1 2.5
2018-Oct-23 11:03N 54°17' W 130°22'0 9.1
2018-Oct-23 11:00N 54°16' W 130°22'3 7.0
2018-Oct-23 10:30N 54°14' W 130°26'715.2
2018-Oct-23 10:04N 54°18' W 130°35'115.4
2018-Oct-23 10:00N 54°19' W 130°36'815.6
2018-Oct-23 09:30N 54°27' W 130°38'715.9
2018-Oct-23 09:03N 54°34' W 130°40'115.8
2018-Oct-23 09:00N 54°35' W 130°40'714.3
2018-Oct-23 08:29N 54°41' W 130°48'614.1
2018-Oct-23 08:02N 54°45' W 130°55'114.5
2018-Oct-23 08:00N 54°46' W 130°55'251 6.6
2018-Oct-21 17:55N 58°09' W 135°20'511.5
2018-Oct-21 17:30N 58°07' W 135°29'0 0.2
2018-Oct-21 16:33N 58°07' W 135°29'1 8.0
2018-Oct-21 16:27N 58°08' W 135°29'  
2018-Oct-18 10:26N 58°09' W 135°18'513.8
2018-Oct-18 10:04N 58°08' W 135°28'1 7.7
2018-Oct-18 09:54N 58°07' W 135°28'0 0.5
2018-Oct-18 08:53N 58°07' W 135°27'1 2.3
2018-Oct-18 08:28N 58°08' W 135°28'511.3
2018-Oct-18 08:02N 58°09' W 135°19'240 6.2
2018-Oct-16 17:31N 54°55' W 131°04'114.1
2018-Oct-16 17:29N 54°54' W 131°05'614.2
2018-Oct-16 17:03N 54°48' W 131°08'115.8
2018-Oct-16 17:00N 54°48' W 131°07'815.9
2018-Oct-16 16:30N 54°44' W 130°55'714.9
2018-Oct-16 16:04N 54°39' W 130°47'115.9
2018-Oct-16 16:00N 54°39' W 130°46'814.7
2018-Oct-16 15:29N 54°32' W 130°39'614.8
2018-Oct-16 15:04N 54°26' W 130°37'115.0
2018-Oct-16 15:00N 54°25' W 130°37'714.6
2018-Oct-16 14:30N 54°18' W 130°34'714.8
2018-Oct-16 14:00N 54°13' W 130°24'4 7.5
2018-Oct-16 13:30N 54°17' W 130°22'1 2.1
2018-Oct-16 13:02N 54°18' W 130°21'0 0.0
2018-Oct-16 12:56N 54°18' W 130°21'0 0.0
2018-Oct-16 12:26N 54°18' W 130°21'0 0.0
2018-Oct-16 12:02N 54°18' W 130°21'0 0.0
2018-Oct-16 11:56N 54°18' W 130°21'0 0.0
2018-Oct-16 11:14N 54°18' W 130°21'0 0.0
2018-Oct-16 11:02N 54°18' W 130°21'0 0.0
2018-Oct-16 10:56N 54°18' W 130°21'0 0.0
2018-Oct-16 10:26N 54°18' W 130°21'0 0.5
2018-Oct-16 10:03N 54°18' W 130°22'0 3.8
2018-Oct-16 10:00N 54°18' W 130°22'5 9.2
2018-Oct-16 09:30N 54°13' W 130°22'715.1
2018-Oct-16 09:03N 54°17' W 130°32'115.3
2018-Oct-16 09:00N 54°17' W 130°33'815.4
2018-Oct-16 08:30N 54°24' W 130°37'715.7
2018-Oct-16 08:03N 54°31' W 130°39'115.9
2018-Oct-16 08:00N 54°32' W 130°39'714.8
2018-Oct-16 07:30N 54°39' W 130°45'714.4
2018-Oct-16 07:02N 54°42' W 130°55'013.8
2018-Oct-16 07:00N 54°42' W 130°56'612.4
2018-Oct-16 06:30N 54°48' W 130°59'714.3
2018-Oct-16 06:02N 54°55' W 131°01'014.4
2018-Oct-16 06:00N 54°55' W 131°01'242 5.7
2018-Oct-14 11:18N 58°10' W 135°24'312.3
2018-Oct-14 11:03N 58°08' W 135°29'0 8.0
2018-Oct-14 11:00N 58°08' W 135°29'1 1.3
2018-Oct-14 10:19N 58°07' W 135°27'1 2.2
2018-Oct-14 10:01N 58°07' W 135°29'0 6.9
2018-Oct-14 09:58N 58°08' W 135°29'  
Track history (hours):
 
Tides and Currents Weather Stations Pressure Air Temp Water Temp Dewpoint Dewpoint Depression Visibility Wind Speed Wind Dir Waves Ship Positions

Malaspina

Owner: ALASKA, STATE OF, ANCHORAGE, AK. More information available from US FCC via Universal Licensing System and Coast Guard Vessel Documentation Center.

Last reported at 2018-Oct-23 17:14 UTC. Time now 2018-Oct-24 04:38 UTC.
Position N 54°46' W 130°56'.

Type: Passenger vessel. MMSI: 367143000.

Date/timePositionNaut miles runAvg speedWind from/ knotsBaromVisibWave heightAir tempDewpointWater temp
2018-Oct-23 17:14N 54°46' W 130°56'316.7
2018-Oct-23 17:02N 54°43' W 130°52'016.3
2018-Oct-23 17:00N 54°43' W 130°51'817.0
2018-Oct-23 16:30N 54°36' W 130°42'716.2
2018-Oct-23 16:03N 54°29' W 130°38'117.0
2018-Oct-23 16:00N 54°29' W 130°38'817.1
2018-Oct-23 15:30N 54°20' W 130°36'716.5
2018-Oct-23 15:03N 54°15' W 130°27'116.9
2018-Oct-23 15:00N 54°14' W 130°26'5 4.3
2018-Oct-23 13:54N 54°18' W 130°21'0 0.0
2018-Oct-23 13:29N 54°18' W 130°21'0 0.0
2018-Oct-23 13:03N 54°18' W 130°21'0 0.0
2018-Oct-23 13:01N 54°18' W 130°21'0 0.0
2018-Oct-23 12:31N 54°18' W 130°21'0 0.0
2018-Oct-23 12:03N 54°18' W 130°21'0 0.0
2018-Oct-23 12:00N 54°18' W 130°21'0 0.0
2018-Oct-23 11:31N 54°18' W 130°21'1 2.5
2018-Oct-23 11:03N 54°17' W 130°22'0 9.1
2018-Oct-23 11:00N 54°16' W 130°22'3 7.0
2018-Oct-23 10:30N 54°14' W 130°26'715.2
2018-Oct-23 10:04N 54°18' W 130°35'115.4
2018-Oct-23 10:00N 54°19' W 130°36'815.6
2018-Oct-23 09:30N 54°27' W 130°38'715.9
2018-Oct-23 09:03N 54°34' W 130°40'115.8
2018-Oct-23 09:00N 54°35' W 130°40'714.3
2018-Oct-23 08:29N 54°41' W 130°48'614.1
2018-Oct-23 08:02N 54°45' W 130°55'114.5
2018-Oct-23 08:00N 54°46' W 130°55'251 6.6
2018-Oct-21 17:55N 58°09' W 135°20'511.5
2018-Oct-21 17:30N 58°07' W 135°29'0 0.2
2018-Oct-21 16:33N 58°07' W 135°29'1 8.0
2018-Oct-21 16:27N 58°08' W 135°29'  
2018-Oct-18 10:26N 58°09' W 135°18'513.8
2018-Oct-18 10:04N 58°08' W 135°28'1 7.7
2018-Oct-18 09:54N 58°07' W 135°28'0 0.5
2018-Oct-18 08:53N 58°07' W 135°27'1 2.3
2018-Oct-18 08:28N 58°08' W 135°28'511.3
2018-Oct-18 08:02N 58°09' W 135°19'240 6.2
2018-Oct-16 17:31N 54°55' W 131°04'114.1
2018-Oct-16 17:29N 54°54' W 131°05'614.2
2018-Oct-16 17:03N 54°48' W 131°08'115.8
2018-Oct-16 17:00N 54°48' W 131°07'815.9
2018-Oct-16 16:30N 54°44' W 130°55'714.9
2018-Oct-16 16:04N 54°39' W 130°47'115.9
2018-Oct-16 16:00N 54°39' W 130°46'814.7
2018-Oct-16 15:29N 54°32' W 130°39'614.8
2018-Oct-16 15:04N 54°26' W 130°37'115.0
2018-Oct-16 15:00N 54°25' W 130°37'714.6
2018-Oct-16 14:30N 54°18' W 130°34'714.8
2018-Oct-16 14:00N 54°13' W 130°24'4 7.5
2018-Oct-16 13:30N 54°17' W 130°22'1 2.1
2018-Oct-16 13:02N 54°18' W 130°21'0 0.0
2018-Oct-16 12:56N 54°18' W 130°21'0 0.0
2018-Oct-16 12:26N 54°18' W 130°21'0 0.0
2018-Oct-16 12:02N 54°18' W 130°21'0 0.0
2018-Oct-16 11:56N 54°18' W 130°21'0 0.0
2018-Oct-16 11:14N 54°18' W 130°21'0 0.0
2018-Oct-16 11:02N 54°18' W 130°21'0 0.0
2018-Oct-16 10:56N 54°18' W 130°21'0 0.0
2018-Oct-16 10:26N 54°18' W 130°21'0 0.5
2018-Oct-16 10:03N 54°18' W 130°22'0 3.8
2018-Oct-16 10:00N 54°18' W 130°22'5 9.2
2018-Oct-16 09:30N 54°13' W 130°22'715.1
2018-Oct-16 09:03N 54°17' W 130°32'115.3
2018-Oct-16 09:00N 54°17' W 130°33'815.4
2018-Oct-16 08:30N 54°24' W 130°37'715.7
2018-Oct-16 08:03N 54°31' W 130°39'115.9
2018-Oct-16 08:00N 54°32' W 130°39'714.8
2018-Oct-16 07:30N 54°39' W 130°45'714.4
2018-Oct-16 07:02N 54°42' W 130°55'013.8
2018-Oct-16 07:00N 54°42' W 130°56'612.4
2018-Oct-16 06:30N 54°48' W 130°59'714.3
2018-Oct-16 06:02N 54°55' W 131°01'014.4
2018-Oct-16 06:00N 54°55' W 131°01'242 5.7
2018-Oct-14 11:18N 58°10' W 135°24'312.3
2018-Oct-14 11:03N 58°08' W 135°29'0 8.0
2018-Oct-14 11:00N 58°08' W 135°29'1 1.3
2018-Oct-14 10:19N 58°07' W 135°27'1 2.2
2018-Oct-14 10:01N 58°07' W 135°29'0 6.9
2018-Oct-14 09:58N 58°08' W 135°29'  

Dump ship's entire track history